sensor_id;sensor_type;location;lat;lon;timestamp;P1;durP1;ratioP1;P2;durP2;ratioP2
6834;SDS011;3455;42.150;24.734;2023-02-12T00:02:15;17.60;;;10.73;;
6834;SDS011;3455;42.150;24.734;2023-02-12T00:04:43;15.47;;;10.43;;
6834;SDS011;3455;42.150;24.734;2023-02-12T00:07:10;15.60;;;10.17;;
6834;SDS011;3455;42.150;24.734;2023-02-12T00:09:37;17.80;;;10.00;;
6834;SDS011;3455;42.150;24.734;2023-02-12T00:12:04;16.57;;;10.00;;
6834;SDS011;3455;42.150;24.734;2023-02-12T00:14:33;14.57;;;9.90;;
6834;SDS011;3455;42.150;24.734;2023-02-12T00:17:01;15.17;;;9.27;;
6834;SDS011;3455;42.150;24.734;2023-02-12T00:19:29;11.73;;;9.63;;
6834;SDS011;3455;42.150;24.734;2023-02-12T00:22:00;10.07;;;8.90;;
6834;SDS011;3455;42.150;24.734;2023-02-12T00:24:31;12.87;;;9.27;;
6834;SDS011;3455;42.150;24.734;2023-02-12T00:26:59;15.37;;;9.30;;
6834;SDS011;3455;42.150;24.734;2023-02-12T00:29:25;10.83;;;8.37;;
6834;SDS011;3455;42.150;24.734;2023-02-12T00:31:55;13.60;;;8.70;;
6834;SDS011;3455;42.150;24.734;2023-02-12T00:34:27;12.87;;;7.90;;
6834;SDS011;3455;42.150;24.734;2023-02-12T00:36:57;12.77;;;9.80;;
6834;SDS011;3455;42.150;24.734;2023-02-12T00:39:27;15.83;;;8.93;;
6834;SDS011;3455;42.150;24.734;2023-02-12T00:42:01;13.73;;;9.27;;
6834;SDS011;3455;42.150;24.734;2023-02-12T00:44:28;12.93;;;9.33;;
6834;SDS011;3455;42.150;24.734;2023-02-12T00:46:57;19.77;;;9.47;;
6834;SDS011;3455;42.150;24.734;2023-02-12T00:49:26;11.40;;;9.60;;
6834;SDS011;3455;42.150;24.734;2023-02-12T00:51:59;13.63;;;8.37;;
6834;SDS011;3455;42.150;24.734;2023-02-12T00:54:30;13.57;;;9.43;;
6834;SDS011;3455;42.150;24.734;2023-02-12T00:56:58;18.73;;;8.27;;
6834;SDS011;3455;42.150;24.734;2023-02-12T00:59:27;9.73;;;6.90;;
6834;SDS011;3455;42.150;24.734;2023-02-12T01:01:56;6.27;;;5.27;;
6834;SDS011;3455;42.150;24.734;2023-02-12T01:04:24;5.13;;;4.63;;
6834;SDS011;3455;42.150;24.734;2023-02-12T01:06:53;4.93;;;3.73;;
6834;SDS011;3455;42.150;24.734;2023-02-12T01:09:23;3.70;;;3.40;;
6834;SDS011;3455;42.150;24.734;2023-02-12T01:11:53;5.07;;;3.80;;
6834;SDS011;3455;42.150;24.734;2023-02-12T01:14:22;3.70;;;3.13;;
6834;SDS011;3455;42.150;24.734;2023-02-12T01:16:51;3.87;;;3.43;;
6834;SDS011;3455;42.150;24.734;2023-02-12T01:19:21;4.67;;;3.73;;
6834;SDS011;3455;42.150;24.734;2023-02-12T01:21:48;3.70;;;3.40;;
6834;SDS011;3455;42.150;24.734;2023-02-12T01:24:14;4.33;;;4.00;;
6834;SDS011;3455;42.150;24.734;2023-02-12T01:26:41;5.53;;;4.13;;
6834;SDS011;3455;42.150;24.734;2023-02-12T01:29:09;4.93;;;4.60;;
6834;SDS011;3455;42.150;24.734;2023-02-12T01:31:36;6.60;;;4.30;;
6834;SDS011;3455;42.150;24.734;2023-02-12T01:34:04;5.13;;;4.63;;
6834;SDS011;3455;42.150;24.734;2023-02-12T01:36:32;4.70;;;4.30;;
6834;SDS011;3455;42.150;24.734;2023-02-12T01:39:00;6.00;;;4.80;;
6834;SDS011;3455;42.150;24.734;2023-02-12T01:41:28;5.33;;;4.50;;
6834;SDS011;3455;42.150;24.734;2023-02-12T01:44:06;4.17;;;3.83;;
6834;SDS011;3455;42.150;24.734;2023-02-12T01:46:36;7.37;;;5.13;;
6834;SDS011;3455;42.150;24.734;2023-02-12T01:49:04;6.50;;;5.17;;
6834;SDS011;3455;42.150;24.734;2023-02-12T01:51:33;6.60;;;4.87;;
6834;SDS011;3455;42.150;24.734;2023-02-12T01:54:02;10.60;;;5.07;;
6834;SDS011;3455;42.150;24.734;2023-02-12T01:56:31;6.87;;;6.00;;
6834;SDS011;3455;42.150;24.734;2023-02-12T01:58:59;8.30;;;5.27;;
6834;SDS011;3455;42.150;24.734;2023-02-12T02:01:28;11.40;;;4.87;;
6834;SDS011;3455;42.150;24.734;2023-02-12T02:03:56;5.03;;;4.40;;
6834;SDS011;3455;42.150;24.734;2023-02-12T02:06:27;5.23;;;4.83;;
6834;SDS011;3455;42.150;24.734;2023-02-12T02:08:57;4.93;;;4.43;;
6834;SDS011;3455;42.150;24.734;2023-02-12T02:11:24;4.70;;;4.10;;
6834;SDS011;3455;42.150;24.734;2023-02-12T02:14:16;4.87;;;4.37;;
6834;SDS011;3455;42.150;24.734;2023-02-12T02:17:04;4.47;;;4.03;;
6834;SDS011;3455;42.150;24.734;2023-02-12T02:19:44;4.47;;;4.07;;
6834;SDS011;3455;42.150;24.734;2023-02-12T02:22:29;4.00;;;3.70;;
6834;SDS011;3455;42.150;24.734;2023-02-12T02:28:12;3.53;;;3.03;;
6834;SDS011;3455;42.150;24.734;2023-02-12T02:30:58;4.30;;;3.60;;
6834;SDS011;3455;42.150;24.734;2023-02-12T02:33:33;4.70;;;4.27;;
6834;SDS011;3455;42.150;24.734;2023-02-12T02:36:16;3.63;;;3.33;;
6834;SDS011;3455;42.150;24.734;2023-02-12T02:38:50;4.77;;;4.27;;
6834;SDS011;3455;42.150;24.734;2023-02-12T02:41:23;5.43;;;4.57;;
6834;SDS011;3455;42.150;24.734;2023-02-12T02:43:54;6.77;;;4.70;;
6834;SDS011;3455;42.150;24.734;2023-02-12T02:46:24;10.63;;;4.63;;
6834;SDS011;3455;42.150;24.734;2023-02-12T02:48:57;6.60;;;5.10;;
6834;SDS011;3455;42.150;24.734;2023-02-12T02:51:28;8.47;;;5.27;;
6834;SDS011;3455;42.150;24.734;2023-02-12T02:54:00;5.83;;;5.23;;
6834;SDS011;3455;42.150;24.734;2023-02-12T02:56:30;8.33;;;5.50;;
6834;SDS011;3455;42.150;24.734;2023-02-12T02:59:00;8.20;;;5.60;;
6834;SDS011;3455;42.150;24.734;2023-02-12T03:01:31;9.97;;;5.63;;
6834;SDS011;3455;42.150;24.734;2023-02-12T03:04:04;6.27;;;4.93;;
6834;SDS011;3455;42.150;24.734;2023-02-12T03:06:35;5.97;;;5.00;;
6834;SDS011;3455;42.150;24.734;2023-02-12T03:09:11;6.17;;;5.67;;
6834;SDS011;3455;42.150;24.734;2023-02-12T03:11:42;5.33;;;4.83;;
6834;SDS011;3455;42.150;24.734;2023-02-12T03:14:11;4.90;;;4.50;;
6834;SDS011;3455;42.150;24.734;2023-02-12T03:16:44;6.03;;;4.27;;
6834;SDS011;3455;42.150;24.734;2023-02-12T03:19:18;5.43;;;4.93;;
6834;SDS011;3455;42.150;24.734;2023-02-12T03:21:48;6.43;;;4.53;;
6834;SDS011;3455;42.150;24.734;2023-02-12T03:24:21;6.30;;;5.07;;
6834;SDS011;3455;42.150;24.734;2023-02-12T03:26:53;6.33;;;5.00;;
6834;SDS011;3455;42.150;24.734;2023-02-12T03:29:24;5.90;;;4.83;;
6834;SDS011;3455;42.150;24.734;2023-02-12T03:31:57;6.67;;;4.43;;
6834;SDS011;3455;42.150;24.734;2023-02-12T03:34:34;4.67;;;4.23;;
6834;SDS011;3455;42.150;24.734;2023-02-12T03:37:13;4.87;;;4.30;;
6834;SDS011;3455;42.150;24.734;2023-02-12T03:39:48;4.57;;;3.40;;
6834;SDS011;3455;42.150;24.734;2023-02-12T03:42:21;4.40;;;4.00;;
6834;SDS011;3455;42.150;24.734;2023-02-12T03:44:57;4.90;;;3.93;;
6834;SDS011;3455;42.150;24.734;2023-02-12T03:47:33;4.93;;;4.53;;
6834;SDS011;3455;42.150;24.734;2023-02-12T03:50:08;5.13;;;4.17;;
6834;SDS011;3455;42.150;24.734;2023-02-12T03:52:38;4.23;;;3.83;;
6834;SDS011;3455;42.150;24.734;2023-02-12T03:55:06;3.83;;;3.53;;
6834;SDS011;3455;42.150;24.734;2023-02-12T03:57:36;4.87;;;3.80;;
6834;SDS011;3455;42.150;24.734;2023-02-12T04:00:07;4.73;;;4.23;;
6834;SDS011;3455;42.150;24.734;2023-02-12T04:02:37;4.60;;;4.20;;
6834;SDS011;3455;42.150;24.734;2023-02-12T04:05:05;5.17;;;4.73;;
6834;SDS011;3455;42.150;24.734;2023-02-12T04:07:33;5.13;;;4.63;;
6834;SDS011;3455;42.150;24.734;2023-02-12T04:10:01;5.50;;;5.00;;
6834;SDS011;3455;42.150;24.734;2023-02-12T04:12:37;7.23;;;4.70;;
6834;SDS011;3455;42.150;24.734;2023-02-12T04:15:20;6.30;;;4.80;;
6834;SDS011;3455;42.150;24.734;2023-02-12T04:18:03;6.43;;;5.20;;
6834;SDS011;3455;42.150;24.734;2023-02-12T04:20:37;6.43;;;5.13;;
6834;SDS011;3455;42.150;24.734;2023-02-12T04:23:16;5.07;;;4.67;;
6834;SDS011;3455;42.150;24.734;2023-02-12T04:25:55;4.80;;;4.40;;
6834;SDS011;3455;42.150;24.734;2023-02-12T04:28:33;5.00;;;4.50;;
6834;SDS011;3455;42.150;24.734;2023-02-12T04:31:07;5.73;;;4.40;;
6834;SDS011;3455;42.150;24.734;2023-02-12T04:33:43;4.37;;;3.97;;
6834;SDS011;3455;42.150;24.734;2023-02-12T04:36:16;4.57;;;4.13;;
6834;SDS011;3455;42.150;24.734;2023-02-12T04:38:49;4.63;;;4.20;;
6834;SDS011;3455;42.150;24.734;2023-02-12T04:41:19;5.57;;;3.67;;
6834;SDS011;3455;42.150;24.734;2023-02-12T04:43:46;3.77;;;3.40;;
6834;SDS011;3455;42.150;24.734;2023-02-12T04:46:12;4.87;;;4.17;;
6834;SDS011;3455;42.150;24.734;2023-02-12T04:48:44;4.57;;;4.17;;
6834;SDS011;3455;42.150;24.734;2023-02-12T04:51:17;4.10;;;3.80;;
6834;SDS011;3455;42.150;24.734;2023-02-12T04:53:44;4.17;;;3.87;;
6834;SDS011;3455;42.150;24.734;2023-02-12T04:56:11;4.03;;;3.73;;
6834;SDS011;3455;42.150;24.734;2023-02-12T04:58:38;4.20;;;3.87;;
6834;SDS011;3455;42.150;24.734;2023-02-12T05:01:05;5.30;;;4.83;;
6834;SDS011;3455;42.150;24.734;2023-02-12T05:03:33;4.83;;;4.40;;
6834;SDS011;3455;42.150;24.734;2023-02-12T05:06:02;11.17;;;5.20;;
6834;SDS011;3455;42.150;24.734;2023-02-12T05:08:30;5.23;;;4.73;;
6834;SDS011;3455;42.150;24.734;2023-02-12T05:11:01;5.40;;;4.80;;
6834;SDS011;3455;42.150;24.734;2023-02-12T05:13:29;5.50;;;5.00;;
6834;SDS011;3455;42.150;24.734;2023-02-12T05:15:56;5.27;;;4.73;;
6834;SDS011;3455;42.150;24.734;2023-02-12T05:18:22;6.27;;;4.83;;
6834;SDS011;3455;42.150;24.734;2023-02-12T05:20:53;5.80;;;4.83;;
6834;SDS011;3455;42.150;24.734;2023-02-12T05:23:22;6.03;;;5.17;;
6834;SDS011;3455;42.150;24.734;2023-02-12T05:25:51;6.00;;;5.50;;
6834;SDS011;3455;42.150;24.734;2023-02-12T05:28:18;7.30;;;5.33;;
6834;SDS011;3455;42.150;24.734;2023-02-12T05:30:44;6.30;;;5.73;;
6834;SDS011;3455;42.150;24.734;2023-02-12T05:33:11;7.60;;;5.90;;
6834;SDS011;3455;42.150;24.734;2023-02-12T05:35:38;7.10;;;6.40;;
6834;SDS011;3455;42.150;24.734;2023-02-12T05:38:04;7.83;;;6.43;;
6834;SDS011;3455;42.150;24.734;2023-02-12T05:40:32;6.67;;;6.07;;
6834;SDS011;3455;42.150;24.734;2023-02-12T05:42:59;8.37;;;5.63;;
6834;SDS011;3455;42.150;24.734;2023-02-12T05:45:27;5.93;;;5.43;;
6834;SDS011;3455;42.150;24.734;2023-02-12T05:47:53;7.80;;;5.43;;
6834;SDS011;3455;42.150;24.734;2023-02-12T05:50:20;5.80;;;5.10;;
6834;SDS011;3455;42.150;24.734;2023-02-12T05:52:47;6.43;;;5.33;;
6834;SDS011;3455;42.150;24.734;2023-02-12T05:55:14;9.43;;;4.83;;
6834;SDS011;3455;42.150;24.734;2023-02-12T05:57:42;5.73;;;5.23;;
6834;SDS011;3455;42.150;24.734;2023-02-12T06:00:09;5.07;;;4.67;;
6834;SDS011;3455;42.150;24.734;2023-02-12T06:02:37;6.20;;;5.57;;
6834;SDS011;3455;42.150;24.734;2023-02-12T06:05:04;5.40;;;4.90;;
6834;SDS011;3455;42.150;24.734;2023-02-12T06:07:31;5.53;;;4.90;;
6834;SDS011;3455;42.150;24.734;2023-02-12T06:09:58;7.47;;;5.67;;
6834;SDS011;3455;42.150;24.734;2023-02-12T06:12:24;7.77;;;5.67;;
6834;SDS011;3455;42.150;24.734;2023-02-12T06:14:52;5.93;;;4.67;;
6834;SDS011;3455;42.150;24.734;2023-02-12T06:17:19;6.17;;;4.83;;
6834;SDS011;3455;42.150;24.734;2023-02-12T06:19:46;6.23;;;5.50;;
6834;SDS011;3455;42.150;24.734;2023-02-12T06:22:13;7.30;;;5.47;;
6834;SDS011;3455;42.150;24.734;2023-02-12T06:24:39;6.97;;;5.90;;
6834;SDS011;3455;42.150;24.734;2023-02-12T06:27:06;5.13;;;4.73;;
6834;SDS011;3455;42.150;24.734;2023-02-12T06:29:33;7.10;;;5.70;;
6834;SDS011;3455;42.150;24.734;2023-02-12T06:32:01;5.63;;;5.20;;
6834;SDS011;3455;42.150;24.734;2023-02-12T06:34:28;9.23;;;5.70;;
6834;SDS011;3455;42.150;24.734;2023-02-12T06:36:54;8.23;;;6.03;;
6834;SDS011;3455;42.150;24.734;2023-02-12T06:39:21;8.00;;;5.80;;
6834;SDS011;3455;42.150;24.734;2023-02-12T06:41:48;5.67;;;5.17;;
6834;SDS011;3455;42.150;24.734;2023-02-12T06:44:15;6.93;;;5.27;;
6834;SDS011;3455;42.150;24.734;2023-02-12T06:46:41;8.83;;;5.83;;
6834;SDS011;3455;42.150;24.734;2023-02-12T06:49:10;6.07;;;5.20;;
6834;SDS011;3455;42.150;24.734;2023-02-12T06:51:38;9.23;;;5.73;;
6834;SDS011;3455;42.150;24.734;2023-02-12T06:54:09;6.93;;;6.23;;
6834;SDS011;3455;42.150;24.734;2023-02-12T06:56:38;5.97;;;5.37;;
6834;SDS011;3455;42.150;24.734;2023-02-12T06:59:04;7.17;;;6.47;;
6834;SDS011;3455;42.150;24.734;2023-02-12T07:01:31;7.57;;;6.27;;
6834;SDS011;3455;42.150;24.734;2023-02-12T07:03:59;6.30;;;5.70;;
6834;SDS011;3455;42.150;24.734;2023-02-12T07:06:28;7.57;;;6.60;;
6834;SDS011;3455;42.150;24.734;2023-02-12T07:08:56;9.93;;;6.83;;
6834;SDS011;3455;42.150;24.734;2023-02-12T07:11:23;8.07;;;6.80;;
6834;SDS011;3455;42.150;24.734;2023-02-12T07:13:51;10.40;;;8.33;;
6834;SDS011;3455;42.150;24.734;2023-02-12T07:16:18;9.20;;;8.13;;
6834;SDS011;3455;42.150;24.734;2023-02-12T07:18:45;14.57;;;9.17;;
6834;SDS011;3455;42.150;24.734;2023-02-12T07:21:12;11.50;;;9.60;;
6834;SDS011;3455;42.150;24.734;2023-02-12T07:23:44;10.87;;;8.97;;
6834;SDS011;3455;42.150;24.734;2023-02-12T07:26:13;12.03;;;9.13;;
6834;SDS011;3455;42.150;24.734;2023-02-12T07:28:40;11.60;;;8.93;;
6834;SDS011;3455;42.150;24.734;2023-02-12T07:31:08;11.87;;;9.67;;
6834;SDS011;3455;42.150;24.734;2023-02-12T07:33:40;13.20;;;9.20;;
6834;SDS011;3455;42.150;24.734;2023-02-12T07:36:10;9.43;;;8.40;;
6834;SDS011;3455;42.150;24.734;2023-02-12T07:38:38;14.57;;;9.43;;
6834;SDS011;3455;42.150;24.734;2023-02-12T07:41:09;13.93;;;8.80;;
6834;SDS011;3455;42.150;24.734;2023-02-12T07:43:37;12.07;;;9.77;;
6834;SDS011;3455;42.150;24.734;2023-02-12T07:46:08;11.23;;;9.27;;
6834;SDS011;3455;42.150;24.734;2023-02-12T07:48:36;14.93;;;10.27;;
6834;SDS011;3455;42.150;24.734;2023-02-12T07:51:03;11.10;;;8.60;;
6834;SDS011;3455;42.150;24.734;2023-02-12T07:53:31;13.73;;;9.80;;
6834;SDS011;3455;42.150;24.734;2023-02-12T07:56:05;13.03;;;8.60;;
6834;SDS011;3455;42.150;24.734;2023-02-12T07:58:35;11.07;;;9.37;;
6834;SDS011;3455;42.150;24.734;2023-02-12T08:01:10;10.67;;;9.47;;
6834;SDS011;3455;42.150;24.734;2023-02-12T08:03:37;10.77;;;9.50;;
6834;SDS011;3455;42.150;24.734;2023-02-12T08:06:06;14.50;;;10.47;;
6834;SDS011;3455;42.150;24.734;2023-02-12T08:08:34;16.60;;;10.60;;
6834;SDS011;3455;42.150;24.734;2023-02-12T08:11:03;16.10;;;9.60;;
6834;SDS011;3455;42.150;24.734;2023-02-12T08:13:30;13.53;;;9.70;;
6834;SDS011;3455;42.150;24.734;2023-02-12T08:16:02;11.47;;;8.87;;
6834;SDS011;3455;42.150;24.734;2023-02-12T08:18:30;10.20;;;9.10;;
6834;SDS011;3455;42.150;24.734;2023-02-12T08:21:01;10.40;;;9.07;;
6834;SDS011;3455;42.150;24.734;2023-02-12T08:23:29;10.17;;;9.13;;
6834;SDS011;3455;42.150;24.734;2023-02-12T08:26:04;10.90;;;9.77;;
6834;SDS011;3455;42.150;24.734;2023-02-12T08:28:35;16.50;;;10.30;;
6834;SDS011;3455;42.150;24.734;2023-02-12T08:31:07;11.30;;;8.53;;
6834;SDS011;3455;42.150;24.734;2023-02-12T08:33:35;14.33;;;9.80;;
6834;SDS011;3455;42.150;24.734;2023-02-12T08:36:03;12.97;;;8.87;;
6834;SDS011;3455;42.150;24.734;2023-02-12T08:38:31;10.00;;;8.77;;
6834;SDS011;3455;42.150;24.734;2023-02-12T08:41:02;12.20;;;9.07;;
6834;SDS011;3455;42.150;24.734;2023-02-12T08:43:30;9.07;;;8.23;;
6834;SDS011;3455;42.150;24.734;2023-02-12T08:46:00;9.37;;;8.37;;
6834;SDS011;3455;42.150;24.734;2023-02-12T08:48:29;9.70;;;8.53;;
6834;SDS011;3455;42.150;24.734;2023-02-12T08:51:01;12.90;;;9.33;;
6834;SDS011;3455;42.150;24.734;2023-02-12T08:53:29;9.73;;;8.63;;
6834;SDS011;3455;42.150;24.734;2023-02-12T08:55:56;9.30;;;8.33;;
6834;SDS011;3455;42.150;24.734;2023-02-12T08:58:23;9.93;;;8.70;;
6834;SDS011;3455;42.150;24.734;2023-02-12T09:00:49;16.63;;;9.33;;
6834;SDS011;3455;42.150;24.734;2023-02-12T09:03:16;8.73;;;7.93;;
6834;SDS011;3455;42.150;24.734;2023-02-12T09:05:44;9.63;;;8.27;;
6834;SDS011;3455;42.150;24.734;2023-02-12T09:08:11;9.77;;;7.37;;
6834;SDS011;3455;42.150;24.734;2023-02-12T09:10:38;9.17;;;8.00;;
6834;SDS011;3455;42.150;24.734;2023-02-12T09:13:05;9.40;;;8.27;;
6834;SDS011;3455;42.150;24.734;2023-02-12T09:15:35;10.27;;;8.67;;
6834;SDS011;3455;42.150;24.734;2023-02-12T09:18:02;16.30;;;8.00;;
6834;SDS011;3455;42.150;24.734;2023-02-12T09:20:30;10.60;;;7.37;;
6834;SDS011;3455;42.150;24.734;2023-02-12T09:22:58;8.57;;;7.63;;
6834;SDS011;3455;42.150;24.734;2023-02-12T09:25:25;9.20;;;8.30;;
6834;SDS011;3455;42.150;24.734;2023-02-12T09:27:51;10.77;;;8.50;;
6834;SDS011;3455;42.150;24.734;2023-02-12T09:30:18;10.63;;;9.27;;
6834;SDS011;3455;42.150;24.734;2023-02-12T09:32:45;10.17;;;9.07;;
6834;SDS011;3455;42.150;24.734;2023-02-12T09:35:11;9.37;;;8.43;;
6834;SDS011;3455;42.150;24.734;2023-02-12T09:37:38;9.33;;;8.43;;
6834;SDS011;3455;42.150;24.734;2023-02-12T09:40:09;8.60;;;7.73;;
6834;SDS011;3455;42.150;24.734;2023-02-12T09:42:49;10.00;;;8.37;;
6834;SDS011;3455;42.150;24.734;2023-02-12T09:45:27;12.23;;;8.67;;
6834;SDS011;3455;42.150;24.734;2023-02-12T09:48:00;9.83;;;8.87;;
6834;SDS011;3455;42.150;24.734;2023-02-12T09:50:39;8.90;;;8.10;;
6834;SDS011;3455;42.150;24.734;2023-02-12T09:53:11;10.77;;;8.33;;
6834;SDS011;3455;42.150;24.734;2023-02-12T09:55:41;13.20;;;9.13;;
6834;SDS011;3455;42.150;24.734;2023-02-12T09:58:10;9.97;;;9.00;;
6834;SDS011;3455;42.150;24.734;2023-02-12T10:00:39;8.50;;;7.70;;
6834;SDS011;3455;42.150;24.734;2023-02-12T10:03:10;8.47;;;7.73;;
6834;SDS011;3455;42.150;24.734;2023-02-12T10:05:40;10.83;;;7.87;;
6834;SDS011;3455;42.150;24.734;2023-02-12T10:11:41;9.98;;;8.95;;
6834;SDS011;3455;42.150;24.734;2023-02-12T10:14:20;10.55;;;9.23;;
6834;SDS011;3455;42.150;24.734;2023-02-12T10:16:56;8.90;;;8.25;;
6834;SDS011;3455;42.150;24.734;2023-02-12T10:19:32;9.30;;;8.60;;
6834;SDS011;3455;42.150;24.734;2023-02-12T10:22:17;9.75;;;8.85;;
6834;SDS011;3455;42.150;24.734;2023-02-12T10:25:04;8.45;;;7.95;;
6834;SDS011;3455;42.150;24.734;2023-02-12T10:27:42;9.20;;;8.50;;
6834;SDS011;3455;42.150;24.734;2023-02-12T10:30:16;8.90;;;8.20;;
6834;SDS011;3455;42.150;24.734;2023-02-12T10:32:46;10.15;;;9.32;;
6834;SDS011;3455;42.150;24.734;2023-02-12T10:35:18;9.48;;;8.55;;
6834;SDS011;3455;42.150;24.734;2023-02-12T10:37:47;8.93;;;8.30;;
6834;SDS011;3455;42.150;24.734;2023-02-12T10:40:19;8.25;;;7.50;;
6834;SDS011;3455;42.150;24.734;2023-02-12T10:42:51;9.15;;;8.38;;
6834;SDS011;3455;42.150;24.734;2023-02-12T10:45:19;8.52;;;7.68;;
6834;SDS011;3455;42.150;24.734;2023-02-12T10:47:48;16.45;;;7.78;;
6834;SDS011;3455;42.150;24.734;2023-02-12T10:50:23;7.68;;;7.07;;
6834;SDS011;3455;42.150;24.734;2023-02-12T10:53:08;7.68;;;7.03;;
6834;SDS011;3455;42.150;24.734;2023-02-12T10:55:42;11.88;;;7.50;;
6834;SDS011;3455;42.150;24.734;2023-02-12T10:58:16;8.15;;;7.25;;
6834;SDS011;3455;42.150;24.734;2023-02-12T11:00:45;8.25;;;7.60;;
6834;SDS011;3455;42.150;24.734;2023-02-12T11:03:19;9.20;;;8.60;;
6834;SDS011;3455;42.150;24.734;2023-02-12T11:05:48;9.20;;;8.40;;
6834;SDS011;3455;42.150;24.734;2023-02-12T11:11:05;8.98;;;8.35;;
6834;SDS011;3455;42.150;24.734;2023-02-12T11:13:36;9.98;;;8.48;;
6834;SDS011;3455;42.150;24.734;2023-02-12T11:16:05;8.60;;;7.80;;
6834;SDS011;3455;42.150;24.734;2023-02-12T11:18:32;8.77;;;8.07;;
6834;SDS011;3455;42.150;24.734;2023-02-12T11:21:01;9.30;;;8.35;;
6834;SDS011;3455;42.150;24.734;2023-02-12T11:23:32;8.57;;;7.70;;
6834;SDS011;3455;42.150;24.734;2023-02-12T11:26:02;11.30;;;7.95;;
6834;SDS011;3455;42.150;24.734;2023-02-12T11:28:31;8.88;;;8.27;;
6834;SDS011;3455;42.150;24.734;2023-02-12T11:31:02;8.43;;;7.72;;
6834;SDS011;3455;42.150;24.734;2023-02-12T11:33:42;8.88;;;8.07;;
6834;SDS011;3455;42.150;24.734;2023-02-12T11:36:12;15.23;;;9.35;;
6834;SDS011;3455;42.150;24.734;2023-02-12T11:38:47;8.80;;;8.07;;
6834;SDS011;3455;42.150;24.734;2023-02-12T11:41:22;9.97;;;8.43;;
6834;SDS011;3455;42.150;24.734;2023-02-12T11:43:52;11.50;;;9.20;;
6834;SDS011;3455;42.150;24.734;2023-02-12T11:46:22;9.40;;;8.50;;
6834;SDS011;3455;42.150;24.734;2023-02-12T11:48:50;8.53;;;7.73;;
6834;SDS011;3455;42.150;24.734;2023-02-12T11:51:20;8.37;;;7.57;;
6834;SDS011;3455;42.150;24.734;2023-02-12T11:53:50;9.40;;;8.63;;
6834;SDS011;3455;42.150;24.734;2023-02-12T11:56:19;10.37;;;9.37;;
6834;SDS011;3455;42.150;24.734;2023-02-12T11:58:46;9.03;;;8.23;;
6834;SDS011;3455;42.150;24.734;2023-02-12T12:01:14;10.17;;;8.00;;
6834;SDS011;3455;42.150;24.734;2023-02-12T12:03:48;13.07;;;8.33;;
6834;SDS011;3455;42.150;24.734;2023-02-12T12:06:23;17.53;;;8.80;;
6834;SDS011;3455;42.150;24.734;2023-02-12T12:08:55;9.40;;;8.63;;
6834;SDS011;3455;42.150;24.734;2023-02-12T12:11:30;9.87;;;8.97;;
6834;SDS011;3455;42.150;24.734;2023-02-12T12:14:03;8.03;;;7.30;;
6834;SDS011;3455;42.150;24.734;2023-02-12T12:16:39;9.13;;;8.23;;
6834;SDS011;3455;42.150;24.734;2023-02-12T12:19:33;10.87;;;7.90;;
6834;SDS011;3455;42.150;24.734;2023-02-12T12:22:22;9.07;;;8.33;;
6834;SDS011;3455;42.150;24.734;2023-02-12T12:24:56;8.60;;;7.43;;
6834;SDS011;3455;42.150;24.734;2023-02-12T12:27:32;8.93;;;8.23;;
6834;SDS011;3455;42.150;24.734;2023-02-12T12:30:41;9.83;;;8.30;;
6834;SDS011;3455;42.150;24.734;2023-02-12T12:33:16;9.10;;;8.27;;
6834;SDS011;3455;42.150;24.734;2023-02-12T12:35:54;8.67;;;7.93;;
6834;SDS011;3455;42.150;24.734;2023-02-12T12:38:38;9.20;;;8.50;;
6834;SDS011;3455;42.150;24.734;2023-02-12T12:41:15;8.73;;;8.03;;
6834;SDS011;3455;42.150;24.734;2023-02-12T12:43:49;8.30;;;7.60;;
6834;SDS011;3455;42.150;24.734;2023-02-12T12:46:26;8.63;;;7.93;;
6834;SDS011;3455;42.150;24.734;2023-02-12T12:49:25;9.47;;;8.67;;
6834;SDS011;3455;42.150;24.734;2023-02-12T12:58:11;11.17;;;8.00;;
6834;SDS011;3455;42.150;24.734;2023-02-12T13:00:51;9.47;;;8.47;;
6834;SDS011;3455;42.150;24.734;2023-02-12T13:03:50;10.20;;;8.40;;
6834;SDS011;3455;42.150;24.734;2023-02-12T13:09:40;8.80;;;8.03;;
6834;SDS011;3455;42.150;24.734;2023-02-12T13:15:20;10.80;;;7.93;;
6834;SDS011;3455;42.150;24.734;2023-02-12T13:17:58;9.57;;;7.80;;
6834;SDS011;3455;42.150;24.734;2023-02-12T13:20:35;9.30;;;7.90;;
6834;SDS011;3455;42.150;24.734;2023-02-12T13:23:10;10.00;;;8.10;;
6834;SDS011;3455;42.150;24.734;2023-02-12T13:25:45;9.10;;;8.30;;
6834;SDS011;3455;42.150;24.734;2023-02-12T13:28:18;10.77;;;9.00;;
6834;SDS011;3455;42.150;24.734;2023-02-12T13:30:52;10.17;;;9.27;;
6834;SDS011;3455;42.150;24.734;2023-02-12T13:33:21;11.87;;;10.03;;
6834;SDS011;3455;42.150;24.734;2023-02-12T13:35:50;11.47;;;10.27;;
6834;SDS011;3455;42.150;24.734;2023-02-12T13:38:20;10.73;;;9.57;;
6834;SDS011;3455;42.150;24.734;2023-02-12T13:40:52;11.80;;;8.20;;
6834;SDS011;3455;42.150;24.734;2023-02-12T13:43:26;10.37;;;9.20;;
6834;SDS011;3455;42.150;24.734;2023-02-12T13:46:06;9.40;;;8.30;;
6834;SDS011;3455;42.150;24.734;2023-02-12T13:48:43;10.20;;;9.30;;
6834;SDS011;3455;42.150;24.734;2023-02-12T13:51:20;10.03;;;9.00;;
6834;SDS011;3455;42.150;24.734;2023-02-12T13:53:57;12.43;;;9.60;;
6834;SDS011;3455;42.150;24.734;2023-02-12T13:56:39;13.00;;;9.20;;
6834;SDS011;3455;42.150;24.734;2023-02-12T14:02:23;11.30;;;10.17;;
6834;SDS011;3455;42.150;24.734;2023-02-12T14:04:55;11.47;;;10.20;;
6834;SDS011;3455;42.150;24.734;2023-02-12T14:07:38;12.67;;;10.70;;
6834;SDS011;3455;42.150;24.734;2023-02-12T14:10:07;12.70;;;9.87;;
6834;SDS011;3455;42.150;24.734;2023-02-12T14:12:45;12.63;;;10.43;;
6834;SDS011;3455;42.150;24.734;2023-02-12T14:15:19;12.43;;;9.17;;
6834;SDS011;3455;42.150;24.734;2023-02-12T14:17:53;11.93;;;10.00;;
6834;SDS011;3455;42.150;24.734;2023-02-12T14:20:25;14.67;;;12.13;;
6834;SDS011;3455;42.150;24.734;2023-02-12T14:25:54;13.73;;;12.33;;
6834;SDS011;3455;42.150;24.734;2023-02-12T14:28:26;16.63;;;12.90;;
6834;SDS011;3455;42.150;24.734;2023-02-12T14:37:35;15.87;;;12.53;;
6834;SDS011;3455;42.150;24.734;2023-02-12T14:43:25;14.60;;;12.97;;
6834;SDS011;3455;42.150;24.734;2023-02-12T14:45:56;15.00;;;13.23;;
6834;SDS011;3455;42.150;24.734;2023-02-12T14:51:19;16.67;;;13.47;;
6834;SDS011;3455;42.150;24.734;2023-02-12T14:53:48;14.70;;;13.00;;
6834;SDS011;3455;42.150;24.734;2023-02-12T14:56:19;15.30;;;13.33;;
6834;SDS011;3455;42.150;24.734;2023-02-12T14:58:49;15.20;;;13.60;;
6834;SDS011;3455;42.150;24.734;2023-02-12T15:01:22;15.93;;;14.20;;
6834;SDS011;3455;42.150;24.734;2023-02-12T15:03:54;18.20;;;13.73;;
6834;SDS011;3455;42.150;24.734;2023-02-12T15:06:26;15.37;;;13.77;;
6834;SDS011;3455;42.150;24.734;2023-02-12T15:09:00;17.93;;;14.20;;
6834;SDS011;3455;42.150;24.734;2023-02-12T15:11:34;43.47;;;15.00;;
6834;SDS011;3455;42.150;24.734;2023-02-12T15:14:11;24.27;;;14.83;;
6834;SDS011;3455;42.150;24.734;2023-02-12T15:16:47;19.90;;;14.23;;
6834;SDS011;3455;42.150;24.734;2023-02-12T15:19:22;18.73;;;14.87;;
6834;SDS011;3455;42.150;24.734;2023-02-12T15:21:59;21.60;;;15.37;;
6834;SDS011;3455;42.150;24.734;2023-02-12T15:24:26;20.13;;;16.03;;
6834;SDS011;3455;42.150;24.734;2023-02-12T15:26:54;21.20;;;16.53;;
6834;SDS011;3455;42.150;24.734;2023-02-12T15:29:25;25.37;;;17.30;;
6834;SDS011;3455;42.150;24.734;2023-02-12T15:31:57;23.00;;;16.53;;
6834;SDS011;3455;42.150;24.734;2023-02-12T15:34:26;16.07;;;14.40;;
6834;SDS011;3455;42.150;24.734;2023-02-12T15:36:57;18.60;;;14.97;;
6834;SDS011;3455;42.150;24.734;2023-02-12T15:39:26;18.13;;;15.43;;
6834;SDS011;3455;42.150;24.734;2023-02-12T15:41:57;19.07;;;15.97;;
6834;SDS011;3455;42.150;24.734;2023-02-12T15:44:26;22.80;;;16.30;;
6834;SDS011;3455;42.150;24.734;2023-02-12T15:47:09;21.77;;;16.67;;
6834;SDS011;3455;42.150;24.734;2023-02-12T15:50:01;23.03;;;16.23;;
6834;SDS011;3455;42.150;24.734;2023-02-12T15:52:29;22.93;;;17.80;;
6834;SDS011;3455;42.150;24.734;2023-02-12T15:55:01;27.00;;;18.10;;
6834;SDS011;3455;42.150;24.734;2023-02-12T15:57:30;23.73;;;17.53;;
6834;SDS011;3455;42.150;24.734;2023-02-12T16:00:03;24.17;;;17.43;;